createdAt,value
2022-10-17T00:01:52.350Z,17.80
2022-10-17T00:04:22.954Z,17.70
2022-10-17T00:06:52.185Z,17.60
2022-10-17T00:09:21.250Z,17.20
2022-10-17T00:11:50.325Z,17.20
2022-10-17T00:14:19.560Z,17.30
2022-10-17T00:16:48.628Z,17.40
2022-10-17T00:19:17.864Z,17.50
2022-10-17T00:21:50.383Z,17.50
2022-10-17T00:24:19.411Z,17.50
2022-10-17T00:26:48.715Z,17.50
2022-10-17T00:29:17.981Z,17.60
2022-10-17T00:31:49.803Z,17.60
2022-10-17T00:34:19.139Z,17.60
2022-10-17T00:36:49.768Z,17.50
2022-10-17T00:39:18.894Z,17.40
2022-10-17T00:41:48.061Z,17.50
2022-10-17T00:44:56.024Z,17.40
2022-10-17T00:47:25.144Z,17.50
2022-10-17T00:49:54.379Z,17.40
2022-10-17T00:52:28.346Z,17.40
2022-10-17T00:55:02.534Z,17.40
2022-10-17T00:57:33.358Z,17.10
2022-10-17T01:00:06.299Z,17.10
2022-10-17T01:02:37.473Z,17.30
2022-10-17T01:05:08.071Z,17.10
2022-10-17T01:07:39.823Z,17.10
2022-10-17T01:10:10.537Z,17.20
2022-10-17T01:13:01.920Z,17.20
2022-10-17T01:15:41.657Z,17.20
2022-10-17T01:18:21.572Z,17.20
2022-10-17T01:21:29.878Z,17.10
2022-10-17T01:24:52.953Z,17.20
2022-10-17T01:28:06.686Z,17.20
2022-10-17T01:31:10.958Z,17.10
2022-10-17T01:33:48.974Z,17.00
2022-10-17T01:36:37.448Z,17.00
2022-10-17T01:39:16.489Z,17.00
2022-10-17T01:41:51.739Z,17.00
2022-10-17T01:44:26.912Z,17.00
2022-10-17T01:47:02.989Z,16.80
2022-10-17T01:49:34.974Z,16.90
2022-10-17T01:52:09.730Z,16.80
2022-10-17T01:54:43.816Z,16.90
2022-10-17T01:57:19.746Z,16.90
2022-10-17T01:59:53.268Z,17.00
2022-10-17T02:02:26.152Z,16.70
2022-10-17T02:04:58.614Z,16.60
2022-10-17T02:07:28.236Z,16.60
2022-10-17T02:09:57.529Z,16.50
2022-10-17T02:12:47.237Z,16.50
2022-10-17T02:15:41.901Z,16.50
2022-10-17T02:18:24.041Z,16.40
2022-10-17T02:20:58.198Z,16.50
2022-10-17T02:23:37.724Z,16.40
2022-10-17T02:26:12.999Z,16.30
2022-10-17T02:28:46.317Z,16.40
2022-10-17T02:31:18.092Z,16.30
2022-10-17T02:33:53.313Z,16.30
2022-10-17T02:36:25.353Z,16.40
2022-10-17T02:38:56.395Z,16.20
2022-10-17T02:41:26.799Z,16.20
2022-10-17T02:43:57.705Z,16.40
2022-10-17T02:46:32.592Z,16.10
2022-10-17T02:49:07.281Z,15.90
2022-10-17T02:51:43.866Z,16.00
2022-10-17T02:54:18.933Z,16.00
2022-10-17T02:56:54.993Z,16.30
2022-10-17T02:59:27.091Z,16.20
2022-10-17T03:01:56.976Z,16.20
2022-10-17T03:04:28.264Z,16.20
2022-10-17T03:06:57.740Z,16.10
2022-10-17T03:09:26.779Z,16.20
2022-10-17T03:11:55.960Z,16.20
2022-10-17T03:14:25.175Z,16.20
2022-10-17T03:16:54.394Z,16.00
2022-10-17T03:19:24.264Z,16.00
2022-10-17T03:21:56.755Z,16.10
2022-10-17T03:24:25.956Z,16.00
2022-10-17T03:26:55.578Z,16.10
2022-10-17T03:29:24.923Z,16.10
2022-10-17T03:31:54.083Z,15.70
2022-10-17T03:34:23.451Z,15.90
2022-10-17T03:36:52.770Z,15.80
2022-10-17T03:39:23.618Z,15.90
2022-10-17T03:41:52.718Z,15.90
2022-10-17T03:44:22.553Z,15.90
2022-10-17T03:46:51.658Z,15.80
2022-10-17T03:49:20.723Z,15.60
2022-10-17T03:51:49.832Z,15.60
2022-10-17T03:54:20.252Z,15.30
2022-10-17T03:56:50.833Z,15.50
2022-10-17T03:59:21.964Z,15.50
2022-10-17T04:02:00.621Z,15.70
2022-10-17T04:04:30.574Z,15.50
2022-10-17T04:07:00.901Z,15.80
2022-10-17T04:09:30.176Z,15.70
2022-10-17T04:12:17.955Z,15.80
2022-10-17T04:14:47.053Z,15.90
2022-10-17T04:17:17.423Z,15.80
2022-10-17T04:19:47.336Z,15.80
2022-10-17T04:22:18.983Z,15.80
2022-10-17T04:24:49.334Z,15.90
2022-10-17T04:27:29.621Z,15.80
2022-10-17T04:29:58.730Z,15.90
2022-10-17T04:32:28.076Z,15.90
2022-10-17T04:35:02.868Z,15.80
2022-10-17T04:37:32.021Z,15.70
2022-10-17T04:40:04.462Z,15.70
2022-10-17T04:42:36.641Z,15.60
2022-10-17T04:45:07.050Z,15.50
2022-10-17T04:47:37.790Z,15.50
2022-10-17T04:50:09.325Z,15.50
2022-10-17T04:52:38.894Z,15.40
2022-10-17T04:55:10.675Z,15.50
2022-10-17T04:57:41.838Z,15.40
2022-10-17T05:00:22.516Z,15.30
2022-10-17T05:03:01.253Z,15.30
2022-10-17T05:05:31.724Z,15.40
2022-10-17T05:08:02.888Z,15.50
2022-10-17T05:10:38.318Z,15.60
2022-10-17T05:13:09.789Z,15.60
2022-10-17T05:15:39.853Z,15.70
2022-10-17T05:18:10.493Z,17.60
2022-10-17T05:20:42.520Z,15.70
2022-10-17T05:23:12.223Z,15.60
2022-10-17T05:25:44.918Z,15.40
2022-10-17T05:28:15.511Z,15.70
2022-10-17T05:30:45.691Z,15.70
2022-10-17T05:33:14.754Z,15.70
2022-10-17T05:35:43.788Z,15.80
2022-10-17T05:38:13.032Z,15.60
2022-10-17T05:40:44.161Z,15.70
2022-10-17T05:43:15.164Z,16.00
2022-10-17T05:45:45.489Z,15.80
2022-10-17T05:48:20.008Z,15.80
2022-10-17T05:50:49.224Z,15.70
2022-10-17T05:53:19.472Z,15.60
2022-10-17T05:55:58.169Z,15.50
2022-10-17T05:58:49.152Z,15.40
2022-10-17T06:01:38.058Z,15.30
2022-10-17T06:04:07.223Z,15.10
2022-10-17T06:06:38.351Z,15.10
2022-10-17T06:09:08.237Z,15.20
2022-10-17T06:11:40.737Z,15.30
2022-10-17T06:14:11.825Z,15.10
2022-10-17T06:16:43.678Z,15.10
2022-10-17T06:19:13.073Z,15.10
2022-10-17T06:21:42.648Z,15.20
2022-10-17T06:24:15.422Z,15.40
2022-10-17T06:26:45.472Z,15.30
2022-10-17T06:29:18.264Z,15.30
2022-10-17T06:31:53.102Z,15.30
2022-10-17T06:34:23.218Z,15.30
2022-10-17T06:36:52.353Z,15.40
2022-10-17T06:39:22.381Z,15.30
2022-10-17T06:42:06.738Z,15.30
2022-10-17T06:45:10.966Z,15.40
2022-10-17T06:48:01.081Z,15.50
2022-10-17T06:50:52.109Z,15.50
2022-10-17T06:53:25.343Z,15.40
2022-10-17T06:56:28.615Z,15.70
2022-10-17T06:59:16.045Z,15.80
2022-10-17T07:01:54.568Z,15.70
2022-10-17T07:04:26.648Z,17.00
2022-10-17T07:09:32.137Z,15.90
2022-10-17T07:12:01.890Z,15.90
2022-10-17T07:14:33.199Z,16.10
2022-10-17T07:17:03.902Z,16.20
2022-10-17T07:19:34.878Z,16.40
2022-10-17T07:22:04.623Z,16.30
2022-10-17T07:24:35.028Z,16.40
2022-10-17T07:27:25.234Z,16.70
2022-10-17T07:29:54.402Z,16.80
2022-10-17T07:32:36.045Z,16.90
2022-10-17T07:35:06.760Z,17.00
2022-10-17T07:37:36.025Z,17.20
2022-10-17T07:40:06.712Z,17.20
2022-10-17T07:45:13.568Z,17.60
2022-10-17T07:47:47.574Z,17.50
2022-10-17T07:50:18.291Z,17.70
2022-10-17T07:52:47.478Z,17.80
2022-10-17T07:55:16.878Z,18.00
2022-10-17T07:57:46.087Z,18.10
2022-10-17T08:00:15.726Z,18.20
2022-10-17T08:02:46.478Z,18.20
2022-10-17T08:05:15.651Z,18.30
2022-10-17T08:07:44.883Z,18.40
2022-10-17T08:10:15.587Z,18.50
2022-10-17T08:12:45.114Z,18.40
2022-10-17T08:15:14.408Z,18.50
2022-10-17T08:17:43.747Z,18.50
2022-10-17T08:20:14.840Z,18.50
2022-10-17T08:22:44.094Z,18.70
2022-10-17T08:25:13.392Z,18.90
2022-10-17T08:27:42.642Z,18.70
2022-10-17T08:30:12.859Z,18.80
2022-10-17T08:32:42.311Z,18.90
2022-10-17T08:35:12.096Z,18.80
2022-10-17T08:37:42.815Z,18.90
2022-10-17T08:40:18.996Z,19.00
2022-10-17T08:43:00.299Z,18.90
2022-10-17T08:45:34.610Z,19.00
2022-10-17T08:48:07.213Z,19.20
2022-10-17T08:50:39.645Z,19.10
2022-10-17T08:53:19.609Z,19.30
2022-10-17T08:55:50.036Z,19.30
2022-10-17T08:58:24.128Z,19.20
2022-10-17T09:01:02.847Z,19.20
2022-10-17T09:03:49.404Z,19.50
2022-10-17T09:06:24.711Z,19.20
2022-10-17T09:09:09.884Z,19.30
2022-10-17T09:11:58.998Z,19.50
2022-10-17T09:14:46.259Z,19.60
2022-10-17T09:17:25.952Z,19.70
2022-10-17T09:20:03.551Z,19.80
2022-10-17T09:22:40.167Z,19.80
2022-10-17T09:25:15.873Z,19.90
2022-10-17T09:27:48.256Z,20.00
2022-10-17T09:30:47.494Z,20.30
2022-10-17T09:33:28.784Z,20.20
2022-10-17T09:36:08.044Z,20.30
2022-10-17T09:38:41.861Z,20.40
2022-10-17T09:41:43.599Z,20.50
2022-10-17T09:44:17.879Z,20.60
2022-10-17T09:47:03.417Z,20.70
2022-10-17T09:49:35.283Z,20.40
2022-10-17T09:52:07.337Z,20.50
2022-10-17T09:54:43.869Z,20.80
2022-10-17T09:57:16.136Z,20.90
2022-10-17T09:59:47.672Z,20.90
2022-10-17T10:02:20.632Z,21.00
2022-10-17T10:05:04.307Z,21.10
2022-10-17T10:07:36.665Z,21.20
2022-10-17T10:10:07.640Z,21.20
2022-10-17T10:12:41.513Z,21.40
2022-10-17T10:15:35.688Z,21.40
2022-10-17T10:18:05.201Z,21.60
2022-10-17T10:20:36.761Z,21.80
2022-10-17T10:23:17.630Z,21.70
2022-10-17T10:25:57.877Z,21.70
2022-10-17T10:28:31.616Z,21.80
2022-10-17T10:31:02.961Z,21.90
2022-10-17T10:33:39.269Z,22.00
2022-10-17T10:36:10.997Z,22.40
2022-10-17T10:38:43.696Z,22.40
2022-10-17T10:41:13.618Z,22.50
2022-10-17T10:43:47.321Z,22.60
2022-10-17T10:46:21.413Z,22.40
2022-10-17T10:48:55.767Z,22.90
2022-10-17T10:51:29.860Z,22.70
2022-10-17T10:54:05.869Z,22.80
2022-10-17T10:56:39.589Z,22.90
2022-10-17T10:59:19.393Z,22.90
2022-10-17T11:01:53.523Z,22.90
2022-10-17T11:04:29.571Z,23.40
2022-10-17T11:07:04.972Z,23.30
2022-10-17T11:09:44.414Z,23.30
2022-10-17T11:12:20.346Z,23.50
2022-10-17T11:14:56.562Z,23.50
2022-10-17T11:17:34.342Z,23.70
2022-10-17T11:20:16.739Z,24.00
2022-10-17T11:22:48.932Z,23.90
2022-10-17T11:25:30.618Z,24.30
2022-10-17T11:28:04.621Z,24.80
2022-10-17T11:33:29.339Z,24.50
2022-10-17T11:36:04.901Z,24.20
2022-10-17T11:38:47.600Z,24.20
2022-10-17T11:41:22.354Z,24.60
2022-10-17T11:43:56.162Z,25.40
2022-10-17T11:46:28.401Z,24.70
2022-10-17T11:49:07.706Z,24.80
2022-10-17T11:52:03.284Z,25.30
2022-10-17T11:54:38.241Z,25.40
2022-10-17T11:57:21.085Z,25.20
2022-10-17T12:00:08.925Z,25.80
2022-10-17T12:03:00.030Z,24.90
2022-10-17T12:05:35.268Z,25.90
2022-10-17T12:08:11.266Z,26.80
2022-10-17T12:10:49.967Z,25.80
2022-10-17T12:13:48.799Z,25.80
2022-10-17T12:16:47.723Z,25.50
2022-10-17T12:19:32.940Z,26.00
2022-10-17T12:22:22.785Z,25.90
2022-10-17T12:25:01.114Z,25.90
2022-10-17T12:28:04.165Z,26.80
2022-10-17T12:30:33.421Z,27.30
2022-10-17T12:33:08.488Z,26.30
2022-10-17T12:35:40.611Z,25.50
2022-10-17T12:38:30.244Z,25.60
2022-10-17T12:41:08.596Z,27.30
2022-10-17T12:46:46.533Z,27.60
2022-10-17T12:49:38.415Z,27.50
2022-10-17T12:52:22.434Z,27.10
2022-10-17T12:55:13.987Z,27.60
2022-10-17T12:57:55.748Z,27.20
2022-10-17T13:00:32.325Z,26.60
2022-10-17T13:03:07.991Z,26.80
2022-10-17T13:05:41.749Z,27.60
2022-10-17T13:08:22.544Z,27.80
2022-10-17T13:10:53.612Z,28.10
2022-10-17T13:13:25.390Z,28.50
2022-10-17T13:15:56.222Z,29.00
2022-10-17T13:18:27.703Z,28.70
2022-10-17T13:20:59.375Z,29.30
2022-10-17T13:23:33.167Z,29.80
2022-10-17T13:26:14.090Z,30.20
2022-10-17T13:28:43.944Z,28.70
2022-10-17T13:31:34.853Z,27.20
2022-10-17T13:34:07.693Z,27.10
2022-10-17T13:36:38.263Z,27.00
2022-10-17T13:39:14.955Z,26.90
2022-10-17T13:41:47.048Z,27.10
2022-10-17T13:44:20.995Z,28.20
2022-10-17T13:46:50.550Z,29.10
2022-10-17T13:49:25.924Z,29.20
2022-10-17T13:51:58.102Z,29.40
2022-10-17T13:54:38.309Z,29.70
2022-10-17T13:57:17.524Z,29.90
2022-10-17T13:59:49.342Z,29.40
2022-10-17T14:02:21.575Z,29.00
2022-10-17T14:05:19.026Z,29.50
2022-10-17T14:10:45.951Z,29.50
2022-10-17T14:13:24.363Z,29.20
2022-10-17T14:15:55.101Z,27.30
2022-10-17T14:18:33.253Z,27.40
2022-10-17T14:24:14.803Z,28.50
2022-10-17T14:26:53.433Z,27.10
2022-10-17T14:29:26.408Z,26.40
2022-10-17T14:32:05.082Z,26.10
2022-10-17T14:34:37.159Z,26.00
2022-10-17T14:37:11.928Z,25.70
2022-10-17T14:39:41.329Z,26.00
2022-10-17T14:42:20.973Z,26.50
2022-10-17T14:44:52.459Z,26.40
2022-10-17T14:50:27.484Z,26.40
2022-10-17T14:53:04.939Z,26.70
2022-10-17T14:55:36.592Z,26.90
2022-10-17T14:58:20.061Z,26.50
2022-10-17T15:00:51.178Z,26.80
2022-10-17T15:03:20.691Z,26.80
2022-10-17T15:05:50.354Z,26.90
2022-10-17T15:08:21.409Z,26.90
2022-10-17T15:10:51.902Z,26.00
2022-10-17T15:13:31.354Z,25.20
2022-10-17T15:16:04.203Z,25.30
2022-10-17T15:18:34.427Z,25.20
2022-10-17T15:21:05.337Z,25.60
2022-10-17T15:23:42.651Z,25.30
2022-10-17T15:26:22.892Z,25.60
2022-10-17T15:28:54.489Z,25.20
2022-10-17T15:31:24.894Z,24.70
2022-10-17T15:33:54.463Z,24.50
2022-10-17T15:36:26.375Z,24.60
2022-10-17T15:38:57.017Z,24.50
2022-10-17T15:41:27.631Z,24.50
2022-10-17T15:43:58.324Z,24.10
2022-10-17T15:46:29.416Z,24.10
2022-10-17T15:49:03.119Z,23.80
2022-10-17T15:51:32.218Z,23.60
2022-10-17T15:54:01.902Z,23.40
2022-10-17T15:56:32.811Z,23.40
2022-10-17T15:59:04.190Z,23.40
2022-10-17T16:01:34.786Z,23.30
2022-10-17T16:04:04.069Z,23.20
2022-10-17T16:06:34.202Z,23.20
2022-10-17T16:09:03.329Z,23.10
2022-10-17T16:11:36.455Z,22.90
2022-10-17T16:14:09.554Z,23.00
2022-10-17T16:16:39.155Z,22.90
2022-10-17T16:19:08.507Z,22.80
2022-10-17T16:21:39.514Z,22.80
2022-10-17T16:24:11.152Z,22.70
2022-10-17T16:26:40.400Z,22.70
2022-10-17T16:29:10.961Z,22.60
2022-10-17T16:31:44.066Z,22.50
2022-10-17T16:34:14.616Z,22.50
2022-10-17T16:36:44.144Z,22.50
2022-10-17T16:39:13.274Z,22.50
2022-10-17T16:41:42.368Z,22.40
2022-10-17T16:44:14.862Z,22.30
2022-10-17T16:46:44.021Z,22.10
2022-10-17T16:49:18.451Z,22.20
2022-10-17T16:51:47.667Z,22.20
2022-10-17T16:54:16.720Z,22.10
2022-10-17T16:56:45.862Z,22.10
2022-10-17T16:59:16.378Z,22.00
2022-10-17T17:01:45.473Z,21.80
2022-10-17T17:04:14.538Z,21.90
2022-10-17T17:09:17.722Z,21.80
2022-10-17T17:11:46.857Z,21.80
2022-10-17T17:14:17.435Z,22.10
2022-10-17T17:16:46.575Z,21.60
2022-10-17T17:19:18.385Z,21.60
2022-10-17T17:21:51.152Z,21.50
2022-10-17T17:24:21.383Z,21.50
2022-10-17T17:26:53.501Z,21.20
2022-10-17T17:29:26.493Z,21.10
2022-10-17T17:31:55.584Z,21.10
2022-10-17T17:34:24.725Z,21.10
2022-10-17T17:36:53.888Z,21.00
2022-10-17T17:39:22.996Z,21.00
2022-10-17T17:41:52.073Z,21.00
2022-10-17T17:44:23.637Z,20.90
2022-10-17T17:46:52.737Z,20.70
2022-10-17T17:49:24.159Z,20.60
2022-10-17T17:51:53.259Z,20.80
2022-10-17T17:54:22.427Z,20.70
2022-10-17T17:56:51.531Z,20.70
2022-10-17T17:59:21.359Z,20.70
2022-10-17T18:01:53.053Z,20.50
2022-10-17T18:04:22.988Z,19.50
2022-10-17T18:06:53.667Z,20.10
2022-10-17T18:09:24.392Z,20.50
2022-10-17T18:11:53.518Z,20.40
2022-10-17T18:14:24.151Z,20.50
2022-10-17T18:16:54.687Z,20.50
2022-10-17T18:19:24.061Z,19.80
2022-10-17T18:21:55.550Z,20.20
2022-10-17T18:24:24.750Z,20.20
2022-10-17T18:26:59.149Z,20.20
2022-10-17T18:29:29.706Z,20.30
2022-10-17T18:32:00.624Z,20.20
2022-10-17T18:34:29.969Z,20.10
2022-10-17T18:36:59.141Z,20.00
2022-10-17T18:39:28.212Z,20.00
2022-10-17T18:41:57.389Z,19.90
2022-10-17T18:44:26.677Z,19.80
2022-10-17T18:46:58.579Z,19.90
2022-10-17T18:49:34.799Z,20.00
2022-10-17T18:52:04.028Z,20.00
2022-10-17T18:54:36.443Z,19.90
2022-10-17T18:57:05.970Z,19.80
2022-10-17T18:59:35.315Z,19.80
2022-10-17T19:02:04.470Z,19.80
2022-10-17T19:04:35.167Z,19.70
2022-10-17T19:07:04.398Z,19.90
2022-10-17T19:09:33.623Z,20.00
2022-10-17T19:12:02.715Z,19.90
2022-10-17T19:14:31.850Z,19.90
2022-10-17T19:17:01.118Z,19.90
2022-10-17T19:19:30.275Z,19.80
2022-10-17T19:22:03.594Z,19.80
2022-10-17T19:24:32.765Z,19.80
2022-10-17T19:27:02.948Z,19.70
2022-10-17T19:29:33.342Z,19.60
2022-10-17T19:32:02.839Z,19.60
2022-10-17T19:34:32.028Z,19.50
2022-10-17T19:37:02.693Z,19.40
2022-10-17T19:39:31.859Z,19.50
2022-10-17T19:42:05.978Z,19.50
2022-10-17T19:44:36.265Z,19.30
2022-10-17T19:47:05.302Z,19.20
2022-10-17T19:49:35.467Z,19.10
2022-10-17T19:52:06.371Z,19.10
2022-10-17T19:54:35.568Z,19.10
2022-10-17T19:57:09.506Z,19.10
2022-10-17T19:59:40.619Z,19.10
2022-10-17T20:02:09.725Z,19.10
2022-10-17T20:04:49.533Z,19.00
2022-10-17T20:07:29.430Z,18.90
2022-10-17T20:09:58.521Z,19.00
2022-10-17T20:12:30.960Z,18.70
2022-10-17T20:15:00.307Z,18.50
2022-10-17T20:17:29.427Z,18.50
2022-10-17T20:19:58.533Z,18.50
2022-10-17T20:22:29.383Z,18.40
2022-10-17T20:24:58.831Z,18.30
2022-10-17T20:27:28.089Z,18.10
2022-10-17T20:30:01.946Z,18.10
2022-10-17T20:32:33.635Z,18.30
2022-10-17T20:35:07.643Z,18.20
2022-10-17T20:37:41.697Z,18.40
2022-10-17T20:43:01.759Z,18.30
2022-10-17T20:45:43.913Z,18.20
2022-10-17T20:48:20.338Z,17.80
2022-10-17T20:50:49.591Z,17.70
2022-10-17T20:53:37.687Z,17.90
2022-10-17T20:56:09.039Z,18.00
2022-10-17T20:58:38.376Z,18.20
2022-10-17T21:01:08.853Z,18.20
2022-10-17T21:03:41.154Z,18.10
2022-10-17T21:06:13.518Z,18.30
2022-10-17T21:08:44.179Z,18.20
2022-10-17T21:11:15.095Z,18.30
2022-10-17T21:13:44.931Z,18.30
2022-10-17T21:16:15.640Z,18.30
2022-10-17T21:18:45.082Z,18.20
2022-10-17T21:21:17.054Z,18.20
2022-10-17T21:23:49.671Z,18.10
2022-10-17T21:26:19.705Z,18.10
2022-10-17T21:28:50.198Z,17.90
2022-10-17T21:31:20.914Z,17.70
2022-10-17T21:33:52.033Z,17.60
2022-10-17T21:36:22.327Z,17.50
2022-10-17T21:38:54.722Z,17.50
2022-10-17T21:41:25.998Z,17.40
2022-10-17T21:43:56.992Z,17.50
2022-10-17T21:46:26.411Z,17.50
2022-10-17T21:48:55.695Z,17.50
2022-10-17T21:51:26.067Z,17.50
2022-10-17T21:53:58.502Z,17.50
2022-10-17T21:56:31.005Z,17.50
2022-10-17T21:59:00.938Z,17.50
2022-10-17T22:01:32.150Z,17.30
2022-10-17T22:04:03.052Z,17.30
2022-10-17T22:06:41.490Z,17.20
2022-10-17T22:09:19.942Z,17.10
2022-10-17T22:11:50.525Z,17.40
2022-10-17T22:14:21.203Z,17.60
2022-10-17T22:16:51.267Z,17.60
2022-10-17T22:19:22.720Z,17.50
2022-10-17T22:21:51.981Z,17.70
2022-10-17T22:24:23.724Z,17.60
2022-10-17T22:26:53.253Z,17.50
2022-10-17T22:29:22.713Z,17.40
2022-10-17T22:31:51.982Z,17.50
2022-10-17T22:34:22.607Z,17.40
2022-10-17T22:36:51.713Z,17.40
2022-10-17T22:39:22.520Z,17.40
2022-10-17T22:41:51.814Z,17.30
2022-10-17T22:44:20.923Z,17.30
2022-10-17T22:46:50.267Z,17.40
2022-10-17T22:49:19.510Z,17.20
2022-10-17T22:51:48.676Z,17.00
2022-10-17T22:54:17.806Z,17.30
2022-10-17T22:56:48.413Z,17.20
2022-10-17T22:59:17.677Z,17.20
2022-10-17T23:01:47.011Z,17.10
2022-10-17T23:04:16.192Z,17.10
2022-10-17T23:06:45.318Z,17.10
2022-10-17T23:09:14.563Z,16.90
2022-10-17T23:11:43.601Z,16.90
2022-10-17T23:14:14.193Z,16.80
2022-10-17T23:16:43.316Z,16.80
2022-10-17T23:19:12.417Z,16.90
2022-10-17T23:21:41.556Z,17.10
2022-10-17T23:24:10.590Z,17.00
2022-10-17T23:26:39.702Z,17.00
2022-10-17T23:29:08.922Z,17.00
2022-10-17T23:31:39.500Z,17.00
2022-10-17T23:34:08.625Z,17.00
2022-10-17T23:36:38.825Z,17.00
2022-10-17T23:39:08.189Z,16.90
2022-10-17T23:41:37.267Z,16.70
2022-10-17T23:44:07.095Z,16.70
2022-10-17T23:46:36.201Z,16.70
2022-10-17T23:49:07.006Z,16.70
2022-10-17T23:51:36.099Z,16.60
2022-10-17T23:54:05.411Z,16.60
2022-10-17T23:56:34.571Z,16.90
2022-10-17T23:59:05.731Z,16.70
